createdAt,value
2022-08-11T00:00:16.228Z,54.25
2022-08-11T00:01:16.227Z,54.76
2022-08-11T00:02:16.206Z,54.25
2022-08-11T00:03:16.207Z,54.16
2022-08-11T00:04:16.175Z,54.46
2022-08-11T00:05:16.157Z,54.25
2022-08-11T00:06:16.197Z,54.36
2022-08-11T00:07:16.136Z,54.76
2022-08-11T00:08:24.437Z,54.68
2022-08-11T00:09:16.110Z,54.99
2022-08-11T00:10:16.091Z,54.99
2022-08-11T00:11:16.100Z,54.99
2022-08-11T00:12:16.068Z,55.19
2022-08-11T00:13:16.974Z,54.79
2022-08-11T00:14:16.031Z,54.58
2022-08-11T00:15:16.031Z,55.19
2022-08-11T00:16:16.031Z,55.19
2022-08-11T00:17:16.078Z,55.19
2022-08-11T00:18:15.988Z,55.59
2022-08-11T00:19:15.990Z,55.32
2022-08-11T00:20:17.314Z,55.62
2022-08-11T00:21:15.972Z,55.41
2022-08-11T00:22:15.930Z,55.62
2022-08-11T00:23:17.383Z,56.12
2022-08-11T00:24:15.912Z,55.52
2022-08-11T00:25:15.909Z,55.52
2022-08-11T00:26:15.901Z,55.92
2022-08-11T00:27:15.879Z,55.72
2022-08-11T00:28:15.863Z,55.82
2022-08-11T00:29:15.851Z,56.15
2022-08-11T00:30:15.840Z,55.94
2022-08-11T00:31:15.841Z,56.56
2022-08-11T00:32:15.810Z,56.15
2022-08-11T00:33:15.800Z,56.56
2022-08-11T00:34:15.780Z,56.65
2022-08-11T00:35:51.864Z,56.56
2022-08-11T00:36:18.907Z,56.76
2022-08-11T00:37:15.750Z,56.65
2022-08-11T00:38:15.731Z,56.35
2022-08-11T00:39:15.785Z,56.56
2022-08-11T00:40:15.692Z,56.65
2022-08-11T00:41:15.693Z,56.68
2022-08-11T00:42:15.690Z,56.27
2022-08-11T00:43:20.032Z,56.58
2022-08-11T00:44:16.660Z,56.88
2022-08-11T00:45:15.639Z,57.09
2022-08-11T00:46:15.627Z,56.78
2022-08-11T00:47:15.629Z,56.68
2022-08-11T00:48:15.599Z,57.09
2022-08-11T00:49:15.589Z,56.98
2022-08-11T00:50:15.568Z,56.88
2022-08-11T00:51:15.557Z,56.98
2022-08-11T00:52:15.559Z,57.49
2022-08-11T00:53:15.537Z,56.98
2022-08-11T00:54:15.518Z,57.11
2022-08-11T00:55:15.502Z,57.31
2022-08-11T00:56:15.519Z,57.21
2022-08-11T00:57:37.219Z,57.72
2022-08-11T00:58:21.774Z,57.52
2022-08-11T00:59:35.523Z,57.31
2022-08-11T01:00:16.438Z,57.72
2022-08-11T01:01:15.487Z,57.62
2022-08-11T01:02:15.429Z,57.62
2022-08-11T01:03:15.397Z,57.62
2022-08-11T01:04:15.390Z,58.12
2022-08-11T01:05:15.376Z,57.72
2022-08-11T01:06:15.378Z,57.82
2022-08-11T01:07:15.378Z,58.02
2022-08-11T01:08:16.355Z,57.95
2022-08-11T01:09:21.963Z,58.45
2022-08-11T01:10:16.307Z,58.25
2022-08-11T01:11:15.298Z,58.45
2022-08-11T01:12:15.297Z,58.36
2022-08-11T01:13:15.275Z,58.36
2022-08-11T01:14:15.256Z,58.05
2022-08-11T01:15:15.245Z,58.05
2022-08-11T01:16:15.227Z,58.05
2022-08-11T01:17:15.229Z,58.96
2022-08-11T01:18:15.196Z,58.76
2022-08-11T01:19:15.187Z,58.76
2022-08-11T01:20:44.918Z,58.78
2022-08-11T01:21:16.166Z,58.58
2022-08-11T01:22:15.156Z,58.48
2022-08-11T01:23:17.498Z,58.48
2022-08-11T01:24:15.126Z,58.48
2022-08-11T01:25:15.106Z,58.48
2022-08-11T01:26:15.100Z,58.58
2022-08-11T01:27:19.364Z,58.58
2022-08-11T01:28:15.067Z,59.09
2022-08-11T01:29:15.065Z,59.09
2022-08-11T01:30:15.036Z,58.58
2022-08-11T01:31:15.038Z,58.89
2022-08-11T01:32:15.026Z,59.39
2022-08-11T01:33:14.998Z,59.09
2022-08-11T01:34:14.995Z,59.59
2022-08-11T01:35:14.974Z,59.63
2022-08-11T01:36:14.955Z,59.52
2022-08-11T01:37:14.969Z,59.32
2022-08-11T01:38:14.946Z,59.42
2022-08-11T01:39:18.423Z,59.32
2022-08-11T01:40:14.903Z,59.63
2022-08-11T01:41:14.898Z,59.92
2022-08-11T01:42:14.897Z,59.52
2022-08-11T01:43:14.865Z,59.52
2022-08-11T01:44:14.842Z,59.83
2022-08-11T01:45:14.855Z,60.13
2022-08-11T01:46:14.819Z,59.83
2022-08-11T01:47:14.835Z,60.03
2022-08-11T01:48:14.817Z,60.13
2022-08-11T01:50:06.591Z,59.92
2022-08-11T01:50:15.765Z,60.16
2022-08-11T01:51:16.883Z,60.06
2022-08-11T01:52:14.746Z,60.06
2022-08-11T01:53:14.725Z,60.26
2022-08-11T01:54:14.715Z,60.77
2022-08-11T01:55:14.713Z,60.26
2022-08-11T01:56:14.685Z,60.77
2022-08-11T01:57:14.686Z,60.36
2022-08-11T01:58:14.663Z,60.06
2022-08-11T01:59:14.712Z,60.36
2022-08-11T02:00:14.635Z,60.66
2022-08-11T02:01:14.686Z,60.57
2022-08-11T02:02:18.907Z,60.16
2022-08-11T02:03:15.603Z,60.57
2022-08-11T02:04:14.575Z,61.07
2022-08-11T02:05:14.585Z,60.77
2022-08-11T02:06:14.553Z,60.77
2022-08-11T02:07:14.562Z,60.89
2022-08-11T02:08:14.523Z,61.10
2022-08-11T02:09:14.514Z,60.69
2022-08-11T02:10:14.502Z,60.59
2022-08-11T02:11:14.492Z,60.79
2022-08-11T02:12:14.494Z,61.51
2022-08-11T02:13:14.455Z,61.10
2022-08-11T02:14:14.450Z,61.00
2022-08-11T02:15:14.434Z,60.79
2022-08-11T02:16:14.414Z,61.20
2022-08-11T02:17:14.423Z,60.69
2022-08-11T02:18:14.393Z,60.69
2022-08-11T02:19:14.393Z,60.69
2022-08-11T02:20:14.363Z,60.89
2022-08-11T02:21:14.364Z,61.10
2022-08-11T02:22:14.373Z,61.30
2022-08-11T02:23:14.332Z,61.40
2022-08-11T02:24:15.323Z,61.43
2022-08-11T02:25:17.706Z,61.94
2022-08-11T02:26:14.283Z,61.53
2022-08-11T02:27:14.299Z,61.63
2022-08-11T02:28:14.254Z,61.63
2022-08-11T02:29:14.254Z,61.13
2022-08-11T02:30:14.223Z,61.02
2022-08-11T02:31:22.535Z,61.02
2022-08-11T02:32:28.593Z,60.93
2022-08-11T02:33:15.312Z,61.74
2022-08-11T02:34:14.173Z,61.33
2022-08-11T02:35:14.161Z,61.43
2022-08-11T02:36:14.143Z,61.33
2022-08-11T02:37:14.163Z,62.04
2022-08-11T02:38:14.111Z,61.63
2022-08-11T02:39:14.166Z,61.63
2022-08-11T02:40:14.094Z,62.34
2022-08-11T02:41:14.101Z,61.74
2022-08-11T02:42:35.232Z,62.34
2022-08-11T02:43:15.066Z,61.76
2022-08-11T02:44:14.040Z,61.46
2022-08-11T02:45:14.023Z,61.76
2022-08-11T02:46:18.434Z,62.17
2022-08-11T02:47:14.011Z,61.36
2022-08-11T02:48:14.080Z,62.17
2022-08-11T02:49:14.006Z,62.17
2022-08-11T02:50:13.960Z,62.07
2022-08-11T02:51:13.951Z,61.87
2022-08-11T02:52:14.961Z,62.57
2022-08-11T02:53:13.923Z,62.48
2022-08-11T02:54:13.900Z,62.07
2022-08-11T02:55:44.684Z,62.07
2022-08-11T02:56:14.880Z,61.76
2022-08-11T02:57:13.888Z,61.87
2022-08-11T02:58:13.850Z,61.97
2022-08-11T02:59:13.850Z,61.76
2022-08-11T03:00:13.811Z,62.48
2022-08-11T03:01:13.844Z,62.48
2022-08-11T03:02:13.854Z,62.20
2022-08-11T03:03:13.781Z,62.51
2022-08-11T03:04:13.770Z,62.30
2022-08-11T03:05:13.772Z,61.79
2022-08-11T03:06:13.741Z,62.10
2022-08-11T03:07:28.883Z,62.20
2022-08-11T03:08:14.738Z,62.60
2022-08-11T03:09:13.710Z,62.40
2022-08-11T03:10:13.689Z,62.40
2022-08-11T03:11:13.679Z,62.30
2022-08-11T03:12:13.682Z,62.30
2022-08-11T03:13:14.218Z,62.51
2022-08-11T03:14:13.630Z,62.81
2022-08-11T03:15:13.619Z,63.01
2022-08-11T03:16:13.610Z,63.01
2022-08-11T03:17:13.610Z,62.91
2022-08-11T03:18:13.584Z,62.91
2022-08-11T03:19:13.569Z,62.60
2022-08-11T03:20:13.560Z,63.01
2022-08-11T03:21:13.540Z,63.21
2022-08-11T03:22:14.524Z,63.21
2022-08-11T03:23:20.391Z,63.01
2022-08-11T03:24:14.499Z,63.24
2022-08-11T03:25:13.509Z,63.01
2022-08-11T03:26:13.469Z,62.94
2022-08-11T03:27:13.468Z,62.84
2022-08-11T03:28:13.442Z,63.04
2022-08-11T03:29:18.305Z,63.24
2022-08-11T03:30:14.419Z,63.45
2022-08-11T03:31:13.400Z,63.75
2022-08-11T03:32:13.400Z,63.45
2022-08-11T03:33:13.393Z,63.34
2022-08-11T03:34:13.359Z,63.65
2022-08-11T03:35:17.790Z,63.85
2022-08-11T03:36:14.328Z,64.06
2022-08-11T03:37:16.680Z,63.34
2022-08-11T03:38:13.316Z,63.65
2022-08-11T03:39:13.377Z,63.65
2022-08-11T03:40:13.311Z,63.75
2022-08-11T03:41:49.325Z,63.85
2022-08-11T03:42:14.267Z,64.06
2022-08-11T03:43:13.249Z,64.06
2022-08-11T03:44:13.218Z,64.36
2022-08-11T03:45:13.231Z,64.06
2022-08-11T03:46:13.198Z,63.75
2022-08-11T03:47:13.197Z,63.95
2022-08-11T03:48:13.198Z,63.68
2022-08-11T03:49:13.158Z,63.78
2022-08-11T03:50:13.180Z,63.98
2022-08-11T03:51:13.140Z,64.49
2022-08-11T03:52:13.130Z,64.09
2022-08-11T03:53:13.117Z,64.39
2022-08-11T03:54:13.109Z,64.39
2022-08-11T03:55:13.090Z,63.78
2022-08-11T03:56:13.076Z,64.18
2022-08-11T03:57:13.056Z,64.09
2022-08-11T03:58:13.057Z,64.09
2022-08-11T03:59:13.026Z,64.18
2022-08-11T04:00:13.026Z,64.09
2022-08-11T04:01:13.037Z,64.49
2022-08-11T04:02:12.995Z,64.70
2022-08-11T04:03:12.996Z,65.30
2022-08-11T04:04:12.967Z,64.70
2022-08-11T04:05:12.957Z,64.59
2022-08-11T04:06:12.945Z,64.39
2022-08-11T04:07:17.792Z,64.39
2022-08-11T04:08:13.936Z,63.98
2022-08-11T04:09:13.273Z,64.09
2022-08-11T04:10:12.877Z,65.20
2022-08-11T04:11:12.888Z,64.79
2022-08-11T04:12:14.761Z,64.79
2022-08-11T04:13:13.846Z,64.29
2022-08-11T04:14:12.838Z,64.42
2022-08-11T04:15:12.825Z,64.93
2022-08-11T04:16:13.013Z,64.83
2022-08-11T04:17:12.824Z,64.83
2022-08-11T04:18:12.815Z,65.54
2022-08-11T04:19:12.765Z,64.93
2022-08-11T04:20:12.756Z,64.93
2022-08-11T04:21:12.738Z,64.42
2022-08-11T04:22:12.726Z,65.23
2022-08-11T04:23:12.715Z,65.54
2022-08-11T04:24:37.709Z,65.74
2022-08-11T04:25:13.679Z,65.44
2022-08-11T04:26:15.958Z,65.13
2022-08-11T04:27:14.366Z,64.73
2022-08-11T04:28:28.699Z,65.44
2022-08-11T04:29:13.622Z,65.23
2022-08-11T04:30:12.614Z,65.84
2022-08-11T04:31:12.611Z,65.94
2022-08-11T04:32:12.595Z,65.54
2022-08-11T04:33:12.583Z,66.15
2022-08-11T04:34:12.587Z,66.25
2022-08-11T04:35:12.573Z,67.06
2022-08-11T04:36:12.592Z,67.16
2022-08-11T04:37:12.514Z,67.57
2022-08-11T04:38:12.541Z,67.77
2022-08-11T04:39:12.577Z,67.88
2022-08-11T04:40:12.493Z,67.36
2022-08-11T04:41:12.471Z,67.06
2022-08-11T04:42:12.464Z,67.16
2022-08-11T04:43:12.483Z,67.16
2022-08-11T04:44:12.444Z,66.76
2022-08-11T04:45:12.412Z,66.76
2022-08-11T04:46:12.954Z,66.25
2022-08-11T04:47:12.391Z,66.55
2022-08-11T04:48:12.385Z,66.46
2022-08-11T04:49:12.379Z,66.96
2022-08-11T04:50:13.354Z,67.36
2022-08-11T04:51:17.496Z,67.77
2022-08-11T04:52:13.332Z,68.38
2022-08-11T04:53:12.314Z,68.18
2022-08-11T04:54:12.333Z,67.67
2022-08-11T04:55:12.361Z,68.59
2022-08-11T04:56:12.503Z,68.28
2022-08-11T04:57:12.243Z,67.97
2022-08-11T04:58:12.253Z,68.69
2022-08-11T04:59:12.260Z,69.60
2022-08-11T05:00:12.226Z,70.11
2022-08-11T05:01:12.243Z,69.70
2022-08-11T05:02:17.136Z,68.79
2022-08-11T05:03:13.182Z,68.28
2022-08-11T05:04:12.194Z,68.45
2022-08-11T05:05:12.153Z,68.66
2022-08-11T05:06:12.142Z,68.66
2022-08-11T05:07:12.123Z,68.45
2022-08-11T05:08:12.112Z,68.05
2022-08-11T05:09:12.122Z,67.44
2022-08-11T05:10:12.082Z,66.32
2022-08-11T05:11:12.082Z,67.30
2022-08-11T05:12:12.062Z,67.41
2022-08-11T05:13:12.070Z,67.81
2022-08-11T05:14:12.059Z,67.81
2022-08-11T05:15:12.021Z,67.81
2022-08-11T05:16:12.020Z,68.19
2022-08-11T05:17:11.991Z,68.29
2022-08-11T05:18:11.981Z,68.19
2022-08-11T05:19:12.002Z,68.29
2022-08-11T05:20:11.990Z,68.66
2022-08-11T05:21:11.969Z,69.37
2022-08-11T05:22:11.924Z,69.84
2022-08-11T05:23:11.911Z,70.25
2022-08-11T05:24:11.925Z,70.42
2022-08-11T05:25:11.889Z,70.32
2022-08-11T05:26:47.117Z,70.29
2022-08-11T05:27:13.990Z,69.98
2022-08-11T05:28:11.867Z,69.88
2022-08-11T05:29:19.728Z,69.85
2022-08-11T05:30:12.823Z,69.85
2022-08-11T05:31:11.813Z,69.61
2022-08-11T05:32:11.793Z,69.61
2022-08-11T05:33:11.789Z,69.58
2022-08-11T05:34:11.790Z,69.38
2022-08-11T05:36:00.611Z,69.24
2022-08-11T05:36:12.744Z,68.94
2022-08-11T05:37:26.060Z,68.84
2022-08-11T05:38:12.722Z,68.60
2022-08-11T05:39:11.743Z,68.51
2022-08-11T05:40:11.816Z,68.37
2022-08-11T05:41:11.675Z,68.17
2022-08-11T05:42:11.670Z,67.86
2022-08-11T05:43:12.649Z,67.83
2022-08-11T05:44:20.653Z,67.63
2022-08-11T05:45:15.536Z,67.60
2022-08-11T05:46:13.261Z,67.30
2022-08-11T05:47:11.630Z,67.10
2022-08-11T05:48:11.609Z,67.27
2022-08-11T05:49:11.572Z,67.27
2022-08-11T05:50:13.405Z,66.93
2022-08-11T05:51:11.543Z,66.73
2022-08-11T05:52:12.996Z,66.50
2022-08-11T05:53:12.520Z,66.30
2022-08-11T05:54:28.221Z,66.30
2022-08-11T05:55:12.512Z,65.86
2022-08-11T05:56:11.499Z,65.76
2022-08-11T05:57:48.735Z,65.73
2022-08-11T05:58:12.460Z,65.22
2022-08-11T05:59:11.454Z,65.22
2022-08-11T06:00:11.445Z,64.89
2022-08-11T06:01:11.510Z,64.69
2022-08-11T06:02:11.394Z,64.46
2022-08-11T06:03:11.385Z,64.46
2022-08-11T06:04:11.373Z,64.23
2022-08-11T06:05:11.382Z,64.03
2022-08-11T06:06:11.350Z,63.82
2022-08-11T06:07:11.330Z,63.70
2022-08-11T06:08:11.322Z,63.29
2022-08-11T06:09:11.310Z,62.86
2022-08-11T06:10:11.302Z,62.66
2022-08-11T06:11:11.261Z,62.33
2022-08-11T06:12:11.261Z,61.83
2022-08-11T06:13:11.310Z,61.60
2022-08-11T06:14:11.243Z,61.40
2022-08-11T06:15:11.233Z,61.07
2022-08-11T06:16:11.202Z,60.94
2022-08-11T06:17:11.199Z,60.64
2022-08-11T06:18:11.182Z,60.41
2022-08-11T06:19:11.870Z,60.11
2022-08-11T06:20:11.161Z,59.98
2022-08-11T06:21:11.132Z,59.68
2022-08-11T06:22:11.144Z,59.45
2022-08-11T06:23:11.108Z,58.95
2022-08-11T06:24:11.130Z,58.62
2022-08-11T06:25:11.081Z,58.32
2022-08-11T06:26:11.071Z,57.89
2022-08-11T06:27:13.549Z,57.59
2022-08-11T06:28:11.061Z,57.26
2022-08-11T06:29:11.040Z,57.17
2022-08-11T06:30:11.040Z,56.94
2022-08-11T06:31:11.002Z,56.64
2022-08-11T06:32:10.991Z,56.21
2022-08-11T06:33:10.972Z,56.31
2022-08-11T06:34:10.974Z,55.81
2022-08-11T06:35:10.962Z,55.39
2022-08-11T06:36:10.944Z,55.09
2022-08-11T06:37:10.960Z,54.86
2022-08-11T06:38:10.912Z,54.86
2022-08-11T06:39:10.994Z,54.66
2022-08-11T06:40:10.901Z,54.34
2022-08-11T06:41:10.871Z,54.11
2022-08-11T06:42:10.861Z,53.91
2022-08-11T06:43:10.843Z,53.78
2022-08-11T06:44:10.835Z,53.59
2022-08-11T06:45:10.831Z,53.66
2022-08-11T06:46:10.803Z,53.36
2022-08-11T06:47:10.813Z,52.94
2022-08-11T06:48:10.780Z,52.74
2022-08-11T06:49:10.763Z,52.72
2022-08-11T06:50:10.763Z,52.22
2022-08-11T06:51:10.733Z,52.09
2022-08-11T06:52:32.036Z,51.79
2022-08-11T06:53:11.713Z,51.57
2022-08-11T06:54:10.702Z,51.17
2022-08-11T06:55:58.014Z,50.65
2022-08-11T06:56:11.728Z,50.35
2022-08-11T06:57:29.285Z,50.43
2022-08-11T06:58:11.652Z,50.33
2022-08-11T06:59:10.633Z,50.11
2022-08-11T07:00:10.641Z,49.51
2022-08-11T07:01:10.649Z,49.49
2022-08-11T07:02:10.596Z,49.09
2022-08-11T07:03:10.584Z,48.99
2022-08-11T07:04:10.567Z,49.49
2022-08-11T07:05:10.564Z,49.46
2022-08-11T07:06:10.550Z,49.05
2022-08-11T07:07:10.528Z,48.94
2022-08-11T07:08:34.641Z,48.72
2022-08-11T07:09:11.504Z,48.33
2022-08-11T07:10:10.495Z,48.01
2022-08-11T07:11:10.464Z,48.21
2022-08-11T07:12:10.466Z,48.08
2022-08-11T07:13:10.476Z,47.17
2022-08-11T07:14:11.435Z,46.78
2022-08-11T07:15:10.427Z,45.86
2022-08-11T07:16:13.518Z,46.16
2022-08-11T07:17:10.396Z,45.76
2022-08-11T07:18:10.383Z,46.23
2022-08-11T07:19:10.364Z,45.94
2022-08-11T07:20:11.379Z,46.22
2022-08-11T07:22:00.485Z,45.82
2022-08-11T07:22:11.334Z,45.60
2022-08-11T07:23:10.308Z,45.30
2022-08-11T07:24:10.297Z,44.89
2022-08-11T07:25:10.295Z,44.20
2022-08-11T07:26:10.277Z,43.78
2022-08-11T07:27:10.259Z,43.48
2022-08-11T07:28:10.249Z,44.07
2022-08-11T07:29:10.228Z,43.46
2022-08-11T07:30:10.249Z,43.17
2022-08-11T07:31:10.216Z,43.24
2022-08-11T07:32:10.205Z,42.95
2022-08-11T07:33:10.175Z,42.54
2022-08-11T07:34:15.892Z,42.34
2022-08-11T07:35:11.166Z,42.12
2022-08-11T07:36:10.143Z,42.22
2022-08-11T07:37:10.126Z,41.71
2022-08-11T07:38:10.122Z,41.22
2022-08-11T07:39:10.130Z,40.61
2022-08-11T07:40:10.106Z,40.90
2022-08-11T07:41:10.079Z,41.19
2022-08-11T07:42:10.067Z,40.78
2022-08-11T07:43:10.048Z,39.58
2022-08-11T07:44:10.043Z,39.58
2022-08-11T07:45:10.033Z,39.48
2022-08-11T07:46:10.016Z,39.17
2022-08-11T07:47:09.988Z,39.17
2022-08-11T07:48:09.985Z,38.19
2022-08-11T07:49:09.967Z,38.58
2022-08-11T07:50:09.974Z,39.25
2022-08-11T07:51:09.939Z,38.85
2022-08-11T07:52:09.937Z,38.35
2022-08-11T07:53:09.922Z,38.54
2022-08-11T07:54:16.511Z,38.23
2022-08-11T07:55:10.933Z,38.13
2022-08-11T07:56:09.879Z,37.82
2022-08-11T07:57:38.982Z,37.92
2022-08-11T07:58:19.166Z,37.02
2022-08-11T07:59:10.838Z,37.02
2022-08-11T08:00:10.323Z,36.71
2022-08-11T08:01:10.669Z,36.41
2022-08-11T08:02:10.858Z,36.69
2022-08-11T08:03:09.790Z,36.59
2022-08-11T08:04:09.792Z,36.40
2022-08-11T08:05:09.779Z,35.60
2022-08-11T08:06:28.475Z,35.40
2022-08-11T08:07:10.742Z,35.50
2022-08-11T08:08:09.724Z,35.89
2022-08-11T08:09:09.720Z,35.38
2022-08-11T08:10:09.724Z,35.36
2022-08-11T08:11:09.689Z,34.48
2022-08-11T08:12:09.670Z,34.47
2022-08-11T08:13:09.662Z,34.86
2022-08-11T08:14:09.644Z,34.57
2022-08-11T08:15:09.653Z,34.55
2022-08-11T08:16:09.621Z,33.67
2022-08-11T08:17:09.610Z,34.05
2022-08-11T08:18:26.052Z,33.46
2022-08-11T08:19:10.581Z,33.17
2022-08-11T08:20:09.632Z,33.15
2022-08-11T08:21:09.562Z,32.86
2022-08-11T08:22:34.678Z,32.47
2022-08-11T08:23:10.542Z,32.55
2022-08-11T08:24:09.562Z,32.55
2022-08-11T08:25:09.559Z,31.67
2022-08-11T08:26:13.572Z,31.76
2022-08-11T08:27:10.481Z,31.56
2022-08-11T08:28:09.452Z,31.95
2022-08-11T08:29:09.447Z,30.19
2022-08-11T08:30:09.459Z,30.88
2022-08-11T08:31:09.423Z,30.98
2022-08-11T08:32:09.416Z,30.96
2022-08-11T08:33:09.417Z,31.25
2022-08-11T08:34:09.376Z,30.94
2022-08-11T08:35:09.396Z,30.93
2022-08-11T08:36:09.448Z,30.35
2022-08-11T08:37:15.902Z,30.05
2022-08-11T08:38:10.325Z,29.85
2022-08-11T08:39:09.364Z,29.94
2022-08-11T08:40:09.319Z,30.24
2022-08-11T08:41:09.295Z,29.94
2022-08-11T08:42:09.273Z,30.12
2022-08-11T08:43:09.265Z,29.93
2022-08-11T08:44:36.672Z,30.12
2022-08-11T08:45:10.305Z,29.82
2022-08-11T08:46:09.214Z,29.72
2022-08-11T08:47:09.213Z,29.14
2022-08-11T08:48:09.195Z,28.83
2022-08-11T08:49:09.185Z,29.22
2022-08-11T08:50:09.227Z,29.12
2022-08-11T08:51:11.028Z,29.22
2022-08-11T08:52:23.717Z,28.91
2022-08-11T08:53:10.136Z,26.98
2022-08-11T08:54:09.120Z,27.47
2022-08-11T08:55:09.126Z,27.67
2022-08-11T08:56:09.095Z,27.66
2022-08-11T08:57:09.084Z,28.14
2022-08-11T08:58:09.075Z,27.73
2022-08-11T08:59:09.060Z,27.73
2022-08-11T09:00:13.061Z,27.82
2022-08-11T09:01:10.083Z,27.53
2022-08-11T09:02:09.034Z,27.33
2022-08-11T09:03:38.145Z,26.74
2022-08-11T09:04:12.296Z,26.35
2022-08-11T09:05:08.996Z,26.64
2022-08-11T09:06:08.975Z,26.16
2022-08-11T09:07:08.961Z,25.76
2022-08-11T09:08:08.960Z,26.34
2022-08-11T09:09:08.997Z,26.43
2022-08-11T09:10:08.931Z,26.05
2022-08-11T09:11:13.462Z,26.05
2022-08-11T09:12:09.893Z,26.05
2022-08-11T09:13:08.913Z,25.36
2022-08-11T09:14:14.380Z,25.65
2022-08-11T09:15:09.875Z,25.84
2022-08-11T09:16:08.868Z,25.65
2022-08-11T09:17:08.833Z,25.25
2022-08-11T09:18:08.817Z,25.15
2022-08-11T09:19:08.810Z,25.15
2022-08-11T09:20:08.810Z,24.76
2022-08-11T09:21:08.780Z,24.76
2022-08-11T09:22:08.760Z,24.37
2022-08-11T09:24:14.959Z,24.76
2022-08-11T09:25:09.745Z,24.35
2022-08-11T09:26:08.718Z,24.26
2022-08-11T09:27:08.737Z,24.55
2022-08-11T09:28:08.685Z,24.82
2022-08-11T09:29:08.678Z,24.05
2022-08-11T09:30:08.676Z,24.34
2022-08-11T09:31:08.650Z,24.34
2022-08-11T09:32:08.633Z,23.85
2022-08-11T09:33:08.624Z,23.65
2022-08-11T09:34:08.609Z,23.36
2022-08-11T09:35:08.628Z,22.98
2022-08-11T09:36:08.582Z,21.53
2022-08-11T09:37:08.573Z,22.02
2022-08-11T09:38:08.564Z,22.02
2022-08-11T09:39:08.642Z,22.31
2022-08-11T09:40:08.551Z,22.41
2022-08-11T09:41:08.523Z,22.70
2022-08-11T09:42:11.349Z,22.50
2022-08-11T09:43:09.505Z,22.31
2022-08-11T09:44:08.484Z,22.50
2022-08-11T09:45:08.487Z,22.59
2022-08-11T09:46:08.454Z,21.92
2022-08-11T09:47:08.443Z,22.20
2022-08-11T09:48:08.426Z,22.00
2022-08-11T09:49:08.424Z,22.00
2022-08-11T09:50:08.428Z,21.99
2022-08-11T09:51:08.405Z,21.89
2022-08-11T09:52:08.385Z,22.19
2022-08-11T09:53:36.414Z,21.59
2022-08-11T09:54:09.355Z,21.21
2022-08-11T09:55:08.346Z,21.69
2022-08-11T09:56:08.336Z,21.11
2022-08-11T09:57:08.326Z,21.11
2022-08-11T09:58:08.297Z,20.73
2022-08-11T09:59:08.299Z,21.10
2022-08-11T10:00:12.195Z,21.20
2022-08-11T10:01:08.361Z,20.72
2022-08-11T10:02:08.267Z,21.10
2022-08-11T10:03:08.238Z,21.28
2022-08-11T10:04:08.226Z,21.38
2022-08-11T10:05:08.227Z,21.00
2022-08-11T10:06:08.407Z,20.79
2022-08-11T10:07:08.189Z,20.89
2022-08-11T10:08:08.176Z,20.60
2022-08-11T10:09:08.167Z,20.78
2022-08-11T10:10:08.168Z,20.59
2022-08-11T10:11:08.142Z,20.40
2022-08-11T10:12:08.128Z,20.50
2022-08-11T10:14:30.519Z,20.40
2022-08-11T10:14:33.748Z,20.39
2022-08-11T10:15:09.148Z,19.71
2022-08-11T10:16:15.574Z,19.90
2022-08-11T10:17:09.063Z,19.81
2022-08-11T10:18:08.048Z,20.29
2022-08-11T10:19:08.035Z,20.10
2022-08-11T10:20:08.030Z,19.51
2022-08-11T10:21:08.022Z,18.93
2022-08-11T10:22:07.993Z,19.32
2022-08-11T10:23:08.006Z,19.51
2022-08-11T10:24:07.974Z,19.13
2022-08-11T10:25:07.979Z,19.23
2022-08-11T10:26:07.970Z,19.32
2022-08-11T10:27:07.933Z,19.32
2022-08-11T10:28:28.631Z,19.32
2022-08-11T10:29:13.450Z,19.42
2022-08-11T10:30:08.905Z,19.21
2022-08-11T10:31:12.567Z,19.31
2022-08-11T10:32:08.870Z,19.60
2022-08-11T10:33:07.860Z,19.60
2022-08-11T10:34:07.845Z,19.49
2022-08-11T10:35:07.831Z,19.01
2022-08-11T10:36:16.725Z,19.01
2022-08-11T10:37:08.820Z,19.01
2022-08-11T10:38:09.993Z,19.00
2022-08-11T10:39:07.814Z,18.81
2022-08-11T10:40:07.763Z,18.71
2022-08-11T10:41:07.775Z,18.71
2022-08-11T10:42:12.286Z,18.91
2022-08-11T10:43:08.724Z,18.91
2022-08-11T10:44:07.719Z,19.20
2022-08-11T10:45:07.714Z,18.99
2022-08-11T10:46:07.711Z,18.71
2022-08-11T10:47:07.681Z,18.23
2022-08-11T10:48:10.935Z,18.23
2022-08-11T10:49:08.654Z,18.33
2022-08-11T10:50:07.645Z,17.76
2022-08-11T10:51:07.645Z,17.76
2022-08-11T10:52:07.631Z,17.47
2022-08-11T10:53:07.878Z,17.77
2022-08-11T10:54:07.584Z,17.97
2022-08-11T10:55:08.607Z,17.88
2022-08-11T10:56:07.559Z,18.08
2022-08-11T10:57:07.547Z,17.88
2022-08-11T10:58:07.545Z,18.66
2022-08-11T10:59:07.536Z,18.57
2022-08-11T11:00:07.519Z,18.86
2022-08-11T11:01:07.550Z,18.66
2022-08-11T11:02:07.480Z,18.76
2022-08-11T11:03:23.091Z,19.15
2022-08-11T11:04:08.458Z,18.76
2022-08-11T11:05:07.462Z,19.15
2022-08-11T11:06:28.811Z,19.36
2022-08-11T11:07:08.427Z,18.50
2022-08-11T11:08:07.407Z,18.60
2022-08-11T11:09:07.396Z,19.48
2022-08-11T11:10:07.394Z,19.68
2022-08-11T11:11:07.370Z,19.31
2022-08-11T11:12:07.364Z,19.12
2022-08-11T11:13:07.341Z,19.43
2022-08-11T11:14:07.329Z,19.92
2022-08-11T11:15:08.356Z,20.21
2022-08-11T11:16:08.322Z,20.70
2022-08-11T11:17:07.299Z,20.62
2022-08-11T11:18:07.281Z,20.23
2022-08-11T11:19:07.281Z,20.43
2022-08-11T11:20:07.292Z,20.24
2022-08-11T11:21:07.258Z,20.93
2022-08-11T11:22:07.221Z,20.34
2022-08-11T11:23:07.234Z,21.03
2022-08-11T11:24:07.211Z,21.23
2022-08-11T11:25:07.201Z,21.03
2022-08-11T11:26:07.177Z,20.94
2022-08-11T11:27:07.177Z,21.03
2022-08-11T11:28:07.152Z,21.61
2022-08-11T11:29:07.199Z,21.33
2022-08-11T11:30:07.123Z,21.04
2022-08-11T11:31:07.123Z,21.43
2022-08-11T11:32:07.100Z,21.33
2022-08-11T11:33:07.093Z,21.53
2022-08-11T11:34:12.695Z,21.72
2022-08-11T11:35:08.063Z,21.62
2022-08-11T11:36:07.065Z,21.33
2022-08-11T11:37:07.044Z,20.75
2022-08-11T11:38:10.486Z,21.25
2022-08-11T11:39:08.047Z,20.57
2022-08-11T11:40:07.000Z,21.45
2022-08-11T11:41:07.010Z,21.94
2022-08-11T11:42:06.972Z,21.75
2022-08-11T11:43:06.956Z,21.06
2022-08-11T11:44:06.944Z,22.03
2022-08-11T11:45:06.971Z,23.20
2022-08-11T11:46:06.943Z,22.23
2022-08-11T11:47:06.919Z,22.52
2022-08-11T11:48:06.911Z,21.65
2022-08-11T11:49:06.943Z,22.03
2022-08-11T11:50:07.877Z,22.33
2022-08-11T11:51:15.558Z,22.03
2022-08-11T11:52:14.355Z,22.13
2022-08-11T11:53:14.333Z,22.33
2022-08-11T11:54:14.319Z,22.13
2022-08-11T11:55:15.539Z,22.23
2022-08-11T11:56:06.798Z,20.98
2022-08-11T11:57:06.787Z,20.68
2022-08-11T11:58:06.768Z,21.27
2022-08-11T11:59:06.756Z,21.47
2022-08-11T12:00:06.740Z,21.37
2022-08-11T12:01:06.749Z,21.48
2022-08-11T12:02:11.665Z,22.36
2022-08-11T12:03:07.748Z,22.25
2022-08-11T12:04:06.691Z,22.25
2022-08-11T12:05:06.755Z,22.54
2022-08-11T12:06:06.697Z,21.86
2022-08-11T12:07:06.658Z,21.28
2022-08-11T12:08:13.052Z,21.58
2022-08-11T12:09:07.638Z,21.58
2022-08-11T12:10:06.617Z,22.36
2022-08-11T12:11:06.634Z,22.75
2022-08-11T12:12:06.591Z,22.16
2022-08-11T12:13:06.569Z,22.45
2022-08-11T12:14:10.450Z,22.55
2022-08-11T12:15:06.551Z,23.03
2022-08-11T12:16:33.538Z,22.83
2022-08-11T12:17:07.522Z,23.03
2022-08-11T12:18:06.523Z,22.93
2022-08-11T12:19:06.509Z,23.13
2022-08-11T12:20:06.523Z,22.35
2022-08-11T12:21:07.503Z,22.06
2022-08-11T12:22:06.479Z,21.77
2022-08-11T12:23:06.463Z,21.88
2022-08-11T12:24:06.455Z,21.58
2022-08-11T12:25:06.445Z,20.80
2022-08-11T12:27:15.823Z,20.91
2022-08-11T12:28:07.403Z,22.08
2022-08-11T12:29:06.394Z,21.59
2022-08-11T12:30:06.394Z,22.08
2022-08-11T12:31:06.355Z,21.59
2022-08-11T12:32:06.355Z,22.37
2022-08-11T12:33:06.343Z,22.86
2022-08-11T12:34:06.352Z,22.86
2022-08-11T12:35:06.327Z,23.25
2022-08-11T12:36:06.315Z,21.88
2022-08-11T12:37:06.327Z,22.27
2022-08-11T12:38:10.686Z,21.11
2022-08-11T12:39:24.218Z,22.37
2022-08-11T12:40:16.729Z,22.08
2022-08-11T12:41:15.578Z,22.47
2022-08-11T12:42:07.404Z,22.86
2022-08-11T12:43:06.213Z,23.05
2022-08-11T12:44:07.236Z,23.05
2022-08-11T12:45:06.207Z,23.24
2022-08-11T12:46:07.194Z,23.33
2022-08-11T12:47:06.176Z,22.26
2022-08-11T12:48:57.870Z,21.58
2022-08-11T12:49:07.176Z,21.88
2022-08-11T12:50:06.259Z,21.79
2022-08-11T12:51:07.109Z,21.50
2022-08-11T12:52:14.701Z,21.69
2022-08-11T12:53:07.089Z,22.27
2022-08-11T12:54:06.081Z,21.20